Time;durP1;ratioP1;P1;durP2;ratioP2;P2;SDS_P1;SDS_P2;PMS_P1;PMS_P2;Temp;Humidity;BMP_temperature;BMP_pressure;BME280_temperature;BME280_humidity;BME280_pressure;Samples;Min_cycle;Max_cycle;Signal;HPM_P1;HPM_P2
2023/08/18 00:05:26;;;;;;;8.17;7.37;;;22.20;5.70;;;;;;6337758;22;20451;-37
2023/08/18 00:07:52;;;;;;;7.67;6.97;;;22.00;99.90;;;;;;6311629;22;20417;-39
2023/08/18 00:10:17;;;;;;;8.10;7.40;;;21.90;99.90;;;;;;6311253;22;20201;-42
2023/08/18 00:12:43;;;;;;;8.17;7.27;;;21.80;99.90;;;;;;6334866;22;20464;-38
2023/08/18 00:15:09;;;;;;;7.30;6.70;;;21.70;99.90;;;;;;6309240;22;20446;-43
2023/08/18 00:17:35;;;;;;;7.60;6.80;;;21.70;99.90;;;;;;6339415;22;20170;-38
2023/08/18 00:20:02;;;;;;;8.00;7.30;;;21.60;99.90;;;;;;6339265;22;20388;-39
2023/08/18 00:22:29;;;;;;;10.43;8.50;;;21.60;99.90;;;;;;6339229;22;20369;-36
2023/08/18 00:24:56;;;;;;;8.73;8.00;;;21.50;99.90;;;;;;6339066;22;20409;-38
2023/08/18 00:27:22;;;;;;;7.70;6.90;;;21.50;99.90;;;;;;6337056;22;20810;-40
2023/08/18 00:29:47;;;;;;;7.13;6.53;;;21.50;99.90;;;;;;6337721;22;20428;-38
2023/08/18 00:32:13;;;;;;;8.10;7.50;;;21.50;99.90;;;;;;6339412;22;20633;-37
2023/08/18 00:34:39;;;;;;;8.13;7.47;;;21.40;99.90;;;;;;6340384;22;20155;-38
2023/08/18 00:37:05;;;;;;;7.57;6.83;;;21.40;99.90;;;;;;6338343;22;20147;-41
2023/08/18 00:39:31;;;;;;;8.07;7.37;;;21.30;99.90;;;;;;6339483;22;20147;-40
2023/08/18 00:41:57;;;;;;;7.67;6.97;;;21.30;99.90;;;;;;6339152;22;20544;-40
2023/08/18 00:44:22;;;;;;;8.23;7.43;;;21.20;1.00;;;;;;6340703;22;20433;-38
2023/08/18 00:46:48;;;;;;;7.93;7.13;;;21.20;1.00;;;;;;6339721;22;20358;-37
2023/08/18 00:49:15;;;;;;;7.97;7.27;;;21.20;1.00;;;;;;6338800;22;20167;-37
2023/08/18 00:51:41;;;;;;;8.47;7.50;;;21.20;1.00;;;;;;6338546;22;20564;-39
2023/08/18 00:54:07;;;;;;;8.30;7.50;;;21.20;1.00;;;;;;6338939;22;20586;-37
2023/08/18 00:56:33;;;;;;;9.00;8.07;;;21.20;1.00;;;;;;6314034;22;20408;-36
2023/08/18 00:58:59;;;;;;;7.43;6.70;;;21.20;1.00;;;;;;6341152;22;20821;-45
2023/08/18 01:01:25;;;;;;;8.47;7.67;;;21.20;1.00;;;;;;6313448;22;20381;-38
2023/08/18 01:03:51;;;;;;;10.00;7.70;;;21.20;1.00;;;;;;6314342;22;20428;-40
2023/08/18 01:06:17;;;;;;;8.10;7.40;;;21.20;99.90;;;;;;6341022;22;20182;-40
2023/08/18 01:08:44;;;;;;;10.30;7.63;;;21.20;99.90;;;;;;6339147;22;20705;-38
2023/08/18 01:11:22;;;;;;;7.60;7.00;;;21.20;99.90;;;;;;6337379;22;20139;-36
2023/08/18 01:14:32;;;;;;;7.57;7.07;;;21.20;99.90;;;;;;6311523;22;20384;-37
2023/08/18 01:17:04;;;;;;;8.13;6.87;;;21.10;99.90;;;;;;6277350;22;20653;-38
2023/08/18 01:19:30;;;;;;;7.53;6.70;;;21.10;99.90;;;;;;6337135;22;20548;-37
2023/08/18 01:21:57;;;;;;;7.80;7.20;;;21.10;1.00;;;;;;6308443;22;20561;-36
2023/08/18 01:24:24;;;;;;;7.17;6.67;;;21.00;1.00;;;;;;6337276;22;20539;-39
2023/08/18 01:26:52;;;;;;;7.40;6.80;;;21.00;1.00;;;;;;6338078;22;20468;-39
2023/08/18 01:29:20;;;;;;;7.20;6.70;;;21.00;99.90;;;;;;6340806;22;20646;-38
2023/08/18 01:31:50;;;;;;;6.93;6.33;;;21.00;99.90;;;;;;6341425;22;20377;-38
2023/08/18 01:34:17;;;;;;;6.60;6.00;;;21.00;99.90;;;;;;6341826;22;20496;-39
2023/08/18 01:36:44;;;;;;;8.83;6.83;;;20.90;99.90;;;;;;6314103;22;20381;-37
2023/08/18 01:39:11;;;;;;;7.20;6.50;;;20.90;99.90;;;;;;6313900;22;20393;-37
2023/08/18 01:41:37;;;;;;;7.20;6.50;;;20.90;99.90;;;;;;6313492;22;20358;-38
2023/08/18 01:44:05;;;;;;;7.37;6.70;;;20.90;99.90;;;;;;6286887;22;20619;-40
2023/08/18 01:46:31;;;;;;;7.00;6.40;;;20.90;99.90;;;;;;6340547;22;20385;-41
2023/08/18 01:48:57;;;;;;;7.03;6.50;;;20.90;99.90;;;;;;6340911;22;20888;-37
2023/08/18 01:51:22;;;;;;;6.50;5.93;;;20.80;99.90;;;;;;6340157;22;20460;-38
2023/08/18 01:53:48;;;;;;;6.47;5.97;;;20.70;99.90;;;;;;6339878;22;20147;-38
2023/08/18 01:56:13;;;;;;;14.20;6.67;;;20.70;99.90;;;;;;6341792;22;20187;-39
2023/08/18 01:58:39;;;;;;;7.20;6.40;;;20.70;99.90;;;;;;6342020;22;20169;-37
2023/08/18 02:01:05;;;;;;;7.90;7.20;;;20.70;99.90;;;;;;6341466;22;20151;-41
2023/08/18 02:03:31;;;;;;;6.80;6.30;;;20.70;99.90;;;;;;6340684;22;20310;-39
2023/08/18 02:05:56;;;;;;;7.13;6.43;;;20.70;99.90;;;;;;6340886;22;20413;-38
2023/08/18 02:08:23;;;;;;;7.17;6.53;;;20.60;99.90;;;;;;6339147;22;20167;-39
2023/08/18 02:10:48;;;;;;;7.63;6.27;;;20.60;99.90;;;;;;6339382;22;20419;-39
2023/08/18 02:13:14;;;;;;;6.53;5.93;;;20.60;99.90;;;;;;6339890;22;20421;-39
2023/08/18 02:15:40;;;;;;;7.10;6.30;;;20.60;99.90;;;;;;6340983;22;20247;-38
2023/08/18 02:18:06;;;;;;;6.70;6.10;;;20.60;99.90;;;;;;6340711;22;20222;-41
2023/08/18 02:20:32;;;;;;;6.60;6.10;;;20.60;99.90;;;;;;6341222;22;20511;-37
2023/08/18 02:22:57;;;;;;;7.87;7.00;;;20.60;99.90;;;;;;6341481;22;20464;-38
2023/08/18 02:25:23;;;;;;;7.43;6.83;;;20.50;99.90;;;;;;6339907;22;20419;-37
2023/08/18 02:27:49;;;;;;;6.60;6.00;;;20.50;99.90;;;;;;6341271;22;20183;-40
2023/08/18 02:30:16;;;;;;;6.93;6.13;;;20.50;99.90;;;;;;6339855;22;20143;-39
2023/08/18 02:32:42;;;;;;;7.33;6.63;;;20.50;99.90;;;;;;6339246;22;20389;-39
2023/08/18 02:35:08;;;;;;;6.90;6.30;;;20.40;99.90;;;;;;6337942;22;20354;-37
2023/08/18 02:37:34;;;;;;;7.27;6.60;;;20.40;99.90;;;;;;6339157;22;20147;-38
2023/08/18 02:40:00;;;;;;;6.40;5.90;;;20.40;99.90;;;;;;6311160;22;20408;-38
2023/08/18 02:42:25;;;;;;;7.63;6.07;;;20.40;99.90;;;;;;6312346;22;20171;-39
2023/08/18 02:44:51;;;;;;;7.23;6.53;;;20.30;99.90;;;;;;6312441;22;20172;-40
2023/08/18 02:47:17;;;;;;;6.73;6.23;;;20.30;99.90;;;;;;6340876;22;20128;-40
2023/08/18 02:49:43;;;;;;;7.17;6.50;;;20.30;1.00;;;;;;6340765;22;20558;-37
2023/08/18 02:52:10;;;;;;;7.63;6.70;;;20.30;1.00;;;;;;6339887;22;20388;-38
2023/08/18 02:54:35;;;;;;;7.77;7.07;;;20.30;99.90;;;;;;6340661;22;20178;-40
2023/08/18 02:57:01;;;;;;;7.40;6.50;;;20.20;99.90;;;;;;6339614;22;20381;-37
2023/08/18 02:59:27;;;;;;;7.50;6.90;;;20.20;99.90;;;;;;6339943;22;20222;-39
2023/08/18 03:01:53;;;;;;;7.20;6.60;;;20.20;99.90;;;;;;6341635;22;20241;-39
2023/08/18 03:04:18;;;;;;;7.70;7.07;;;20.20;99.90;;;;;;6313233;22;20437;-42
2023/08/18 03:06:44;;;;;;;8.10;7.30;;;20.20;99.90;;;;;;6342318;22;20155;-38
2023/08/18 03:09:10;;;;;;;7.40;6.80;;;20.20;99.90;;;;;;6340635;22;20508;-40
2023/08/18 03:11:35;;;;;;;9.73;7.10;;;20.20;99.90;;;;;;6339744;22;20131;-39
2023/08/18 03:14:01;;;;;;;7.40;6.90;;;20.20;99.90;;;;;;6340270;22;20136;-39
2023/08/18 03:16:27;;;;;;;10.60;7.90;;;20.20;99.90;;;;;;6340946;22;20147;-40
2023/08/18 03:18:52;;;;;;;8.57;6.80;;;20.10;1.00;;;;;;6340818;22;20796;-38
2023/08/18 03:21:18;;;;;;;7.10;6.50;;;20.10;99.90;;;;;;6312362;22;20151;-40
2023/08/18 03:23:44;;;;;;;8.70;7.00;;;20.10;1.00;;;;;;6340432;22;20186;-39
2023/08/18 03:26:10;;;;;;;7.27;6.60;;;20.10;99.90;;;;;;6339719;22;20525;-38
2023/08/18 03:28:36;;;;;;;6.50;6.00;;;20.10;1.00;;;;;;6312100;22;20183;-37
2023/08/18 03:31:03;;;;;;;7.23;6.67;;;20.10;1.00;;;;;;6340023;22;20646;-39
2023/08/18 03:33:29;;;;;;;8.00;7.23;;;20.00;1.00;;;;;;6310492;22;20404;-38
2023/08/18 03:35:55;;;;;;;7.07;6.47;;;20.00;1.00;;;;;;6337868;22;20651;-40
2023/08/18 03:38:21;;;;;;;7.80;6.83;;;20.10;99.90;;;;;;6340008;22;20602;-39
2023/08/18 03:40:48;;;;;;;7.30;6.23;;;20.10;99.90;;;;;;6339686;22;20388;-38
2023/08/18 03:43:14;;;;;;;6.97;6.37;;;20.10;99.90;;;;;;6340167;22;20420;-38
2023/08/18 03:45:39;;;;;;;6.73;6.13;;;20.00;99.90;;;;;;6339956;22;20385;-39
2023/08/18 03:48:05;;;;;;;7.13;6.43;;;20.00;99.90;;;;;;6340256;22;20178;-40
2023/08/18 03:50:31;;;;;;;17.43;9.40;;;19.90;1.00;;;;;;6340497;22;20131;-35
2023/08/18 03:52:57;;;;;;;7.40;6.63;;;19.80;99.90;;;;;;6340149;22;20364;-39
2023/08/18 03:55:23;;;;;;;7.23;6.37;;;19.80;99.90;;;;;;6339886;22;20162;-38
2023/08/18 03:57:49;;;;;;;7.23;5.63;;;19.80;99.90;;;;;;6339337;22;20393;-37
2023/08/18 04:00:15;;;;;;;7.50;6.63;;;19.80;99.90;;;;;;6338173;22;20179;-39
2023/08/18 04:02:40;;;;;;;9.23;5.90;;;19.90;99.90;;;;;;6338621;22;20222;-40
2023/08/18 04:05:06;;;;;;;6.00;5.50;;;19.90;99.90;;;;;;6310390;22;20448;-40
2023/08/18 04:07:32;;;;;;;6.13;5.60;;;19.90;99.90;;;;;;6339009;22;20325;-39
2023/08/18 04:09:57;;;;;;;6.50;5.90;;;19.80;99.90;;;;;;6339847;22;20175;-38
2023/08/18 04:12:23;;;;;;;6.50;5.90;;;19.90;99.90;;;;;;6338696;22;20143;-41
2023/08/18 04:14:49;;;;;;;6.90;6.27;;;19.90;99.90;;;;;;6339649;22;20190;-39
2023/08/18 04:17:15;;;;;;;6.77;5.77;;;19.90;99.90;;;;;;6339669;22;20155;-39
2023/08/18 04:19:41;;;;;;;6.67;6.07;;;20.00;99.90;;;;;;6340503;22;20173;-39
2023/08/18 04:22:07;;;;;;;6.90;6.30;;;20.00;99.90;;;;;;6339916;22;20300;-39
2023/08/18 04:24:33;;;;;;;8.20;6.53;;;20.00;99.90;;;;;;6339842;22;20393;-38
2023/08/18 04:27:01;;;;;;;7.03;6.43;;;20.00;33.20;;;;;;6310259;22;20401;-40
2023/08/18 04:29:27;;;;;;;5.87;5.33;;;20.00;54.90;;;;;;6338314;22;20159;-39
2023/08/18 04:31:53;;;;;;;6.70;6.10;;;19.90;99.90;;;;;;6338494;22;20822;-39
2023/08/18 04:34:18;;;;;;;6.67;6.07;;;19.90;99.90;;;;;;6311334;22;20511;-41
2023/08/18 04:36:44;;;;;;;8.23;5.50;;;19.90;99.90;;;;;;6338665;22;20157;-39
2023/08/18 04:39:13;;;;;;;5.43;5.00;;;19.90;99.90;;;;;;6339047;22;20147;-41
2023/08/18 04:41:39;;;;;;;6.70;6.10;;;19.90;99.90;;;;;;6338362;22;20192;-40
2023/08/18 04:44:05;;;;;;;6.23;5.63;;;19.90;83.90;;;;;;6309574;22;20643;-45
2023/08/18 04:46:31;;;;;;;9.60;5.90;;;20.00;1.00;;;;;;6337565;22;20386;-39
2023/08/18 04:48:57;;;;;;;6.00;5.50;;;19.90;3.30;;;;;;6338818;22;20672;-39
2023/08/18 04:51:23;;;;;;;6.63;6.03;;;19.90;62.90;;;;;;6337710;22;20727;-39
2023/08/18 04:53:50;;;;;;;6.53;5.93;;;19.80;99.90;;;;;;6336345;22;20808;-42
2023/08/18 04:56:16;;;;;;;7.10;6.40;;;19.90;99.90;;;;;;6337045;22;20445;-41
2023/08/18 04:58:41;;;;;;;6.87;5.70;;;19.90;99.90;;;;;;6337407;22;20707;-41
2023/08/18 05:01:08;;;;;;;5.83;4.97;;;19.90;99.90;;;;;;6337511;22;20152;-38
2023/08/18 05:03:34;;;;;;;6.87;6.00;;;20.00;99.90;;;;;;6337521;22;20194;-41
2023/08/18 05:06:08;;;;;;;6.83;6.17;;;20.00;21.60;;;;;;6338026;22;20823;-39
2023/08/18 05:08:40;;;;;;;6.60;5.90;;;20.10;29.40;;;;;;6312010;22;20159;-39
2023/08/18 05:11:10;;;;;;;6.90;5.90;;;20.20;1.00;;;;;;6311315;22;20350;-39
2023/08/18 05:13:37;;;;;;;6.43;5.83;;;20.20;1.00;;;;;;6337722;22;20707;-41
2023/08/18 05:16:03;;;;;;;6.30;5.80;;;20.30;1.00;;;;;;6339445;22;20381;-39
2023/08/18 05:18:29;;;;;;;6.93;6.23;;;20.30;1.00;;;;;;6336575;22;20435;-39
2023/08/18 05:20:59;;;;;;;6.60;6.00;;;20.30;1.00;;;;;;6336388;22;20434;-39
2023/08/18 05:23:25;;;;;;;6.30;5.70;;;20.40;1.00;;;;;;6308924;22;20376;-40
2023/08/18 05:25:54;;;;;;;10.23;6.37;;;20.30;1.00;;;;;;6336034;22;20381;-38
2023/08/18 05:28:21;;;;;;;8.57;6.20;;;20.40;1.00;;;;;;6336954;22;20416;-39
2023/08/18 05:30:48;;;;;;;7.33;6.57;;;20.40;1.00;;;;;;6337300;22;20512;-41
2023/08/18 05:33:14;;;;;;;7.20;6.33;;;20.50;1.00;;;;;;6334598;22;20392;-40
2023/08/18 05:35:40;;;;;;;6.37;5.77;;;20.60;1.00;;;;;;6336240;22;20376;-39
2023/08/18 05:38:11;;;;;;;6.97;6.37;;;20.70;1.00;;;;;;6309739;22;20398;-42
2023/08/18 05:40:47;;;;;;;9.30;7.00;;;20.70;1.00;;;;;;6338122;22;20385;-40
2023/08/18 05:43:14;;;;;;;7.07;6.47;;;20.80;1.00;;;;;;6336904;22;20453;-39
2023/08/18 05:45:39;;;;;;;7.27;6.67;;;20.80;1.00;;;;;;6335729;22;20381;-41
2023/08/18 05:48:06;;;;;;;7.23;6.60;;;20.90;99.90;;;;;;6309543;22;20523;-39
2023/08/18 05:50:32;;;;;;;6.60;6.00;;;20.90;99.90;;;;;;6310231;22;20145;-38
2023/08/18 05:53:00;;;;;;;6.40;5.87;;;21.00;99.90;;;;;;6337320;22;20691;-39
2023/08/18 05:55:26;;;;;;;7.40;6.60;;;21.00;99.90;;;;;;6310583;22;20465;-41
2023/08/18 05:57:52;;;;;;;7.00;6.50;;;21.10;57.20;;;;;;6337889;22;20812;-38
2023/08/18 06:00:18;;;;;;;7.70;6.50;;;21.20;1.00;;;;;;6311649;22;20147;-41
2023/08/18 06:02:44;;;;;;;7.10;6.50;;;21.30;1.00;;;;;;6310411;22;20669;-40
2023/08/18 06:05:10;;;;;;;6.93;6.20;;;21.30;1.00;;;;;;6310949;22;20490;-39
2023/08/18 06:07:36;;;;;;;7.53;6.80;;;21.40;99.90;;;;;;6337937;22;20147;-41
2023/08/18 06:10:08;;;;;;;6.90;6.30;;;21.40;1.00;;;;;;6309826;22;20412;-39
2023/08/18 06:12:34;;;;;;;6.40;5.80;;;21.40;1.00;;;;;;6311223;22;20479;-39
2023/08/18 06:15:00;;;;;;;7.63;6.57;;;21.50;1.00;;;;;;6310230;22;20392;-40
2023/08/18 06:17:26;;;;;;;6.83;6.13;;;21.50;1.00;;;;;;6336609;22;20228;-41
2023/08/18 06:19:52;;;;;;;7.13;6.00;;;21.60;1.00;;;;;;6308654;22;20741;-45
2023/08/18 06:22:18;;;;;;;7.53;6.33;;;21.70;1.00;;;;;;6336858;22;20158;-40
2023/08/18 06:24:43;;;;;;;7.60;7.00;;;21.80;1.00;;;;;;6337622;22;20381;-39
2023/08/18 06:27:09;;;;;;;6.30;5.70;;;21.90;11.70;;;;;;6338256;22;20155;-40
2023/08/18 06:29:34;;;;;;;6.60;6.00;;;21.90;99.90;;;;;;6339198;22;20242;-40
2023/08/18 06:32:00;;;;;;;7.30;6.60;;;22.00;99.90;;;;;;6311585;22;20174;-38
2023/08/18 06:34:26;;;;;;;9.17;6.50;;;22.10;1.00;;;;;;6340824;22;20148;-39
2023/08/18 06:36:51;;;;;;;5.90;5.40;;;22.10;1.00;;;;;;6341387;22;20284;-41
2023/08/18 06:39:17;;;;;;;7.83;6.53;;;22.10;1.00;;;;;;6339572;22;20151;-42
2023/08/18 06:41:43;;;;;;;6.80;6.17;;;22.20;99.90;;;;;;6338104;22;20232;-43
2023/08/18 06:44:09;;;;;;;6.27;5.57;;;22.40;99.90;;;;;;6336745;22;20146;-41
2023/08/18 06:46:35;;;;;;;6.27;5.67;;;22.40;1.00;;;;;;6338123;22;20174;-41
2023/08/18 06:49:02;;;;;;;6.10;5.57;;;22.50;1.00;;;;;;6338873;22;20832;-38
2023/08/18 06:51:28;;;;;;;7.37;5.30;;;22.70;1.00;;;;;;6338334;22;20289;-40
2023/08/18 06:53:54;;;;;;;7.27;5.80;;;22.80;99.90;;;;;;6335793;22;20381;-39
2023/08/18 06:56:19;;;;;;;4.83;4.40;;;22.80;1.00;;;;;;6337031;22;20354;-40
2023/08/18 06:58:45;;;;;;;7.57;5.10;;;22.90;1.00;;;;;;6337298;22;20179;-43
2023/08/18 07:01:11;;;;;;;5.10;4.60;;;22.90;99.90;;;;;;6336164;22;20206;-40
2023/08/18 07:03:37;;;;;;;5.07;4.57;;;23.00;99.90;;;;;;6308300;22;20251;-40
2023/08/18 07:06:02;;;;;;;5.47;4.97;;;23.00;99.90;;;;;;6338603;22;20190;-38
2023/08/18 07:08:28;;;;;;;5.00;4.50;;;23.10;99.90;;;;;;6340090;22;20167;-40
2023/08/18 07:10:54;;;;;;;5.27;4.73;;;23.20;1.00;;;;;;6310143;22;20142;-38
2023/08/18 07:13:22;;;;;;;5.27;4.77;;;23.20;4.10;;;;;;6337278;22;20147;-40
2023/08/18 07:15:48;;;;;;;5.30;4.80;;;23.20;1.00;;;;;;6310682;22;20501;-38
2023/08/18 07:18:16;;;;;;;5.23;4.73;;;23.20;1.00;;;;;;6337108;22;20676;-38
2023/08/18 07:20:45;;;;;;;5.30;4.37;;;23.40;1.00;;;;;;6309813;22;20658;-39
2023/08/18 07:23:11;;;;;;;6.47;4.57;;;23.60;1.00;;;;;;6335604;22;21011;-38
2023/08/18 07:25:37;;;;;;;6.80;4.70;;;23.60;1.00;;;;;;6282189;22;20462;-42
2023/08/18 07:28:04;;;;;;;4.30;3.90;;;23.70;99.90;;;;;;6308345;22;20273;-40
2023/08/18 07:30:30;;;;;;;4.80;4.17;;;23.80;99.90;;;;;;6283970;22;20404;-39
2023/08/18 07:32:56;;;;;;;4.50;4.10;;;23.90;99.90;;;;;;6338071;22;20380;-38
2023/08/18 07:35:22;;;;;;;4.70;4.03;;;24.10;99.90;;;;;;6309688;22;20193;-41
2023/08/18 07:37:48;;;;;;;5.03;4.53;;;24.30;99.90;;;;;;6337928;22;20362;-38
2023/08/18 07:40:14;;;;;;;4.07;3.77;;;24.40;99.90;;;;;;6338523;22;20439;-39
2023/08/18 07:42:40;;;;;;;6.83;4.80;;;24.50;99.90;;;;;;6337740;22;20255;-44
2023/08/18 07:45:06;;;;;;;4.90;4.20;;;24.70;99.90;;;;;;6338101;22;20147;-40
2023/08/18 07:47:34;;;;;;;4.20;3.80;;;24.80;99.90;;;;;;6336482;22;20357;-40
2023/08/18 07:49:59;;;;;;;4.30;3.90;;;24.90;99.90;;;;;;6339087;22;20408;-39
2023/08/18 07:52:25;;;;;;;7.13;5.10;;;25.20;99.90;;;;;;6310891;22;20785;-42
2023/08/18 07:54:51;;;;;;;5.30;4.50;;;25.40;99.90;;;;;;6337393;22;20147;-40
2023/08/18 07:57:17;;;;;;;4.33;3.70;;;25.60;99.90;;;;;;6336307;22;20488;-39
2023/08/18 07:59:43;;;;;;;5.20;4.70;;;25.70;99.90;;;;;;6335740;22;20162;-40
2023/08/18 08:02:08;;;;;;;6.67;4.63;;;25.80;99.90;;;;;;6307261;22;20155;-41
2023/08/18 08:04:34;;;;;;;5.50;5.00;;;25.90;99.90;;;;;;6335215;22;20199;-40
2023/08/18 08:07:00;;;;;;;7.63;4.33;;;25.90;99.90;;;;;;6332668;22;20550;-41
2023/08/18 08:09:26;;;;;;;5.10;4.60;;;25.90;98.30;;;;;;6335975;22;20578;-40
2023/08/18 08:11:52;;;;;;;7.10;4.80;;;26.00;92.20;;;;;;6308307;22;20155;-40
2023/08/18 08:14:19;;;;;;;4.83;4.27;;;26.30;84.20;;;;;;6309732;22;20453;-39
2023/08/18 08:16:46;;;;;;;5.17;4.70;;;26.50;42.20;;;;;;6337842;22;20750;-41
2023/08/18 08:19:13;;;;;;;4.97;4.47;;;26.60;26.70;;;;;;6311372;22;20529;-40
2023/08/18 08:21:40;;;;;;;4.20;3.77;;;26.70;17.00;;;;;;6310609;22;20483;-42
2023/08/18 08:24:06;;;;;;;4.23;3.83;;;26.90;25.40;;;;;;6338319;22;20381;-41
2023/08/18 08:26:32;;;;;;;5.00;4.50;;;27.30;52.90;;;;;;6338555;22;20385;-37
2023/08/18 08:28:58;;;;;;;8.20;4.83;;;27.70;4.10;;;;;;6339303;22;20425;-40
2023/08/18 08:31:24;;;;;;;4.80;4.30;;;28.00;1.00;;;;;;6311380;22;20377;-40
2023/08/18 08:33:49;;;;;;;4.33;3.80;;;28.10;1.00;;;;;;6309912;22;20573;-38
2023/08/18 08:36:15;;;;;;;4.60;4.20;;;28.10;1.00;;;;;;6337944;22;20127;-37
2023/08/18 08:38:42;;;;;;;5.50;3.73;;;28.20;1.00;;;;;;6339159;22;20551;-39
2023/08/18 08:41:08;;;;;;;3.97;3.57;;;28.30;1.00;;;;;;6310322;22;20170;-38
2023/08/18 08:43:34;;;;;;;4.77;3.93;;;28.70;1.00;;;;;;6336494;22;20704;-38
2023/08/18 08:46:00;;;;;;;4.17;3.77;;;29.00;1.00;;;;;;6336160;22;20385;-37
2023/08/18 08:48:37;;;;;;;4.83;3.80;;;29.40;1.00;;;;;;6283755;22;20428;-37
2023/08/18 08:51:04;;;;;;;4.43;4.10;;;29.70;1.00;;;;;;6309398;22;20377;-40
2023/08/18 08:53:44;;;;;;;4.47;4.07;;;29.90;1.00;;;;;;6336301;22;20414;-43
2023/08/18 08:56:10;;;;;;;4.77;4.00;;;29.90;1.00;;;;;;6282971;22;20393;-40
2023/08/18 08:58:36;;;;;;;4.27;3.57;;;30.10;1.00;;;;;;6336715;22;20389;-37
2023/08/18 09:01:02;;;;;;;4.93;4.53;;;30.20;1.00;;;;;;6309960;22;20152;-37
2023/08/18 09:03:28;;;;;;;5.17;4.10;;;30.10;1.00;;;;;;6337973;22;20429;-38
2023/08/18 09:05:54;;;;;;;4.13;3.83;;;30.00;1.00;;;;;;6338904;22;20361;-40
2023/08/18 09:08:20;;;;;;;5.10;4.20;;;30.10;1.00;;;;;;6338503;22;20425;-41
2023/08/18 09:10:46;;;;;;;4.50;3.83;;;30.40;1.00;;;;;;6337368;22;20392;-37
2023/08/18 09:13:12;;;;;;;4.00;3.60;;;30.40;1.00;;;;;;6339946;22;20376;-39
2023/08/18 09:15:41;;;;;;;4.77;4.27;;;30.50;1.00;;;;;;6340729;22;20139;-39
2023/08/18 09:18:07;;;;;;;4.83;4.10;;;30.70;1.00;;;;;;6340548;22;20358;-38
2023/08/18 09:20:32;;;;;;;5.80;4.70;;;30.60;1.00;;;;;;6313390;22;20424;-38
2023/08/18 09:22:58;;;;;;;4.70;3.37;;;30.70;1.00;;;;;;6340606;22;20152;-38
2023/08/18 09:25:24;;;;;;;4.43;3.63;;;31.00;1.00;;;;;;6340054;22;20171;-39
2023/08/18 09:27:49;;;;;;;5.23;3.90;;;31.40;1.00;;;;;;6338381;22;20532;-38
2023/08/18 09:30:15;;;;;;;5.17;3.60;;;31.70;1.00;;;;;;6312010;22;20140;-39
2023/08/18 09:32:42;;;;;;;5.53;4.13;;;31.70;1.00;;;;;;6340667;22;20158;-38
2023/08/18 09:35:11;;;;;;;4.00;3.53;;;31.50;1.00;;;;;;6339542;22;20148;-38
2023/08/18 09:37:37;;;;;;;4.57;3.70;;;31.40;1.00;;;;;;6338198;22;20426;-39
2023/08/18 09:40:03;;;;;;;4.50;3.87;;;31.30;1.00;;;;;;6338305;22;20360;-37
2023/08/18 09:42:29;;;;;;;5.63;3.87;;;31.20;1.00;;;;;;6308961;22;20343;-38
2023/08/18 09:44:55;;;;;;;4.40;3.30;;;31.20;1.00;;;;;;6338380;22;20365;-38
2023/08/18 09:47:23;;;;;;;3.77;3.23;;;31.30;1.00;;;;;;6337131;22;20215;-38
2023/08/18 09:49:50;;;;;;;3.57;3.27;;;31.70;1.00;;;;;;6283854;22;20252;-38
2023/08/18 09:52:16;;;;;;;4.93;3.23;;;32.00;1.00;;;;;;6308681;22;20428;-39
2023/08/18 09:54:52;;;;;;;3.97;3.50;;;32.20;1.00;;;;;;6336433;22;20356;-36
2023/08/18 09:58:00;;;;;;;4.40;3.20;;;32.60;1.00;;;;;;6284280;22;20392;-37
2023/08/18 10:00:27;;;;;;;6.40;3.90;;;32.90;1.00;;;;;;6330445;22;20546;-38
2023/08/18 10:02:57;;;;;;;4.53;3.70;;;33.20;1.00;;;;;;6309636;22;20365;-36
2023/08/18 10:05:23;;;;;;;5.50;3.13;;;33.60;1.00;;;;;;6309100;22;20429;-37
2023/08/18 10:07:49;;;;;;;3.67;3.37;;;34.30;1.00;;;;;;6309299;22;20746;-39
2023/08/18 10:10:15;;;;;;;3.83;3.40;;;35.00;1.00;;;;;;6308115;22;20387;-39
2023/08/18 10:12:42;;;;;;;4.10;3.13;;;35.50;1.00;;;;;;6336740;22;21528;-38
2023/08/18 10:15:08;;;;;;;3.50;3.00;;;35.90;1.00;;;;;;6310357;22;20705;-37
2023/08/18 10:17:34;;;;;;;4.20;3.77;;;36.10;1.00;;;;;;6338313;22;20416;-38
2023/08/18 10:20:00;;;;;;;4.30;3.47;;;36.10;1.00;;;;;;6338290;22;20381;-38
2023/08/18 10:22:28;;;;;;;3.80;3.50;;;35.90;1.00;;;;;;6311980;22;20383;-38
2023/08/18 10:24:54;;;;;;;3.37;2.87;;;36.00;1.00;;;;;;6339937;22;20744;-42
2023/08/18 10:27:26;;;;;;;3.40;3.10;;;36.10;1.00;;;;;;6310964;22;20352;-38
2023/08/18 10:30:19;;;;;;;6.23;3.67;;;36.00;1.00;;;;;;6337894;22;20978;-39
2023/08/18 10:32:44;;;;;;;4.47;3.70;;;36.00;1.00;;;;;;6310000;22;20787;-37
2023/08/18 10:35:27;;;;;;;5.50;3.57;;;35.80;1.00;;;;;;6340073;22;20428;-38
2023/08/18 10:38:05;;;;;;;5.00;3.93;;;35.40;1.00;;;;;;6312171;22;20522;-39
2023/08/18 10:40:33;;;;;;;3.30;3.00;;;35.30;1.00;;;;;;6339531;22;20393;-40
2023/08/18 10:43:12;;;;;;;4.60;3.20;;;35.40;1.00;;;;;;6311602;22;20568;-40
2023/08/18 10:45:40;;;;;;;2.90;2.60;;;35.90;1.00;;;;;;6337669;22;20358;-40
2023/08/18 10:48:06;;;;;;;3.90;3.23;;;36.70;1.00;;;;;;6337284;22;20405;-39
2023/08/18 10:50:35;;;;;;;3.77;3.47;;;36.70;1.00;;;;;;6338070;22;20383;-40
2023/08/18 10:53:03;;;;;;;4.00;3.20;;;36.80;1.00;;;;;;6337310;22;20398;-38
2023/08/18 10:55:30;;;;;;;3.63;3.20;;;37.20;1.00;;;;;;6336573;22;20372;-39
2023/08/18 10:57:55;;;;;;;2.93;2.60;;;37.70;1.00;;;;;;6337663;22;20395;-41
2023/08/18 11:00:21;;;;;;;3.40;3.00;;;38.30;1.00;;;;;;6335916;22;20365;-39
2023/08/18 11:02:51;;;;;;;3.40;2.70;;;38.40;1.00;;;;;;6309164;22;20147;-38
2023/08/18 11:05:18;;;;;;;2.83;2.53;;;38.70;1.00;;;;;;6337984;22;20229;-39
2023/08/18 11:07:44;;;;;;;3.23;2.40;;;38.60;1.00;;;;;;6338462;22;20434;-39
2023/08/18 11:10:21;;;;;;;3.60;2.90;;;38.30;1.00;;;;;;6337912;22;20963;-38
2023/08/18 11:12:50;;;;;;;5.00;2.63;;;38.50;1.00;;;;;;6336391;22;20416;-37
2023/08/18 11:15:20;;;;;;;3.43;2.37;;;38.50;1.00;;;;;;6335818;22;20384;-41
2023/08/18 11:17:46;;;;;;;3.30;2.70;;;38.60;1.00;;;;;;6337568;22;20385;-38
2023/08/18 11:20:13;;;;;;;3.20;2.80;;;38.80;1.00;;;;;;6309102;22;20393;-38
2023/08/18 11:22:43;;;;;;;4.97;2.70;;;38.80;1.00;;;;;;6308670;22;20426;-39
2023/08/18 11:25:11;;;;;;;7.00;2.83;;;38.10;1.00;;;;;;6337912;22;20442;-38
2023/08/18 11:27:40;;;;;;;3.47;3.17;;;37.70;1.00;;;;;;6338094;22;20425;-38
2023/08/18 11:30:10;;;;;;;3.30;2.87;;;37.20;1.00;;;;;;6339870;22;20416;-40
2023/08/18 11:32:37;;;;;;;4.43;3.23;;;37.20;1.00;;;;;;6337936;22;20387;-39
2023/08/18 11:35:04;;;;;;;4.57;2.70;;;37.40;1.00;;;;;;6337497;22;20389;-37
2023/08/18 11:37:30;;;;;;;3.83;2.60;;;37.20;1.00;;;;;;6309685;22;20427;-37
2023/08/18 11:39:56;;;;;;;3.27;2.97;;;36.40;1.00;;;;;;6310211;22;20385;-38
2023/08/18 11:42:25;;;;;;;3.70;2.60;;;35.70;1.00;;;;;;6337518;22;20132;-40
2023/08/18 11:44:51;;;;;;;2.90;2.60;;;35.50;1.00;;;;;;6312534;22;20127;-42
2023/08/18 11:47:17;;;;;;;4.53;3.30;;;35.80;1.00;;;;;;6337773;22;20392;-38
2023/08/18 11:49:44;;;;;;;3.70;3.00;;;36.10;1.00;;;;;;6310002;22;20179;-41
2023/08/18 11:52:10;;;;;;;4.50;2.70;;;37.00;1.00;;;;;;6335713;22;20385;-38
2023/08/18 11:54:38;;;;;;;2.83;2.63;;;37.70;1.00;;;;;;6336638;22;20780;-39
2023/08/18 11:57:08;;;;;;;5.20;3.00;;;38.20;1.00;;;;;;6337234;22;20211;-39
2023/08/18 11:59:34;;;;;;;4.47;3.10;;;38.00;1.00;;;;;;6336717;22;20381;-39
2023/08/18 12:02:06;;;;;;;3.23;2.93;;;38.00;1.00;;;;;;6336287;22;20477;-37
2023/08/18 12:04:32;;;;;;;3.37;2.83;;;37.90;1.00;;;;;;6336879;22;20718;-38
2023/08/18 12:06:58;;;;;;;4.20;3.30;;;37.50;1.00;;;;;;6337147;22;20385;-40
2023/08/18 12:09:24;;;;;;;3.73;3.20;;;37.00;1.00;;;;;;6334838;22;20688;-39
2023/08/18 12:11:50;;;;;;;4.50;3.20;;;36.60;1.00;;;;;;6336088;22;20921;-39
2023/08/18 12:14:17;;;;;;;5.50;3.30;;;36.40;1.00;;;;;;6335677;22;20381;-38
2023/08/18 12:16:43;;;;;;;2.80;2.27;;;36.60;1.00;;;;;;6337761;22;20416;-38
2023/08/18 12:19:10;;;;;;;3.60;2.90;;;36.50;1.00;;;;;;6337623;22;20436;-39
2023/08/18 12:21:36;;;;;;;3.47;3.03;;;36.40;1.00;;;;;;6337757;22;20457;-39
2023/08/18 12:24:06;;;;;;;3.70;2.93;;;36.40;1.00;;;;;;6337716;22;20369;-38
2023/08/18 12:26:32;;;;;;;3.83;3.07;;;36.10;1.00;;;;;;6311134;22;20381;-42
2023/08/18 12:28:58;;;;;;;3.83;3.13;;;35.70;1.00;;;;;;6337544;22;20664;-40
2023/08/18 12:31:27;;;;;;;3.40;3.03;;;35.80;1.00;;;;;;6336863;22;20381;-39
2023/08/18 12:33:55;;;;;;;7.00;3.80;;;35.90;1.00;;;;;;6335588;22;20396;-40
2023/08/18 12:36:21;;;;;;;5.30;2.90;;;35.80;1.00;;;;;;6336103;22;20354;-38
2023/08/18 12:38:46;;;;;;;7.10;2.83;;;36.20;1.00;;;;;;6335687;22;20476;-38
2023/08/18 12:41:14;;;;;;;3.70;3.17;;;36.90;1.00;;;;;;6337646;22;20166;-42
2023/08/18 12:43:40;;;;;;;4.93;3.30;;;38.00;1.00;;;;;;6337405;22;20169;-40
2023/08/18 12:46:06;;;;;;;3.80;3.23;;;38.50;1.00;;;;;;6337709;22;20390;-38
2023/08/18 12:48:31;;;;;;;3.33;3.03;;;38.40;1.00;;;;;;6339747;22;20797;-39
2023/08/18 12:50:59;;;;;;;3.37;2.47;;;38.20;1.00;;;;;;6339387;22;20142;-40
2023/08/18 12:53:25;;;;;;;3.80;3.30;;;38.20;1.00;;;;;;6340774;22;20147;-38
2023/08/18 12:55:51;;;;;;;3.70;2.93;;;38.50;1.00;;;;;;6339977;22;20389;-41